sensor_id;sensor_type;location;lat;lon;timestamp;P1;durP1;ratioP1;P2;durP2;ratioP2
57107;SDS011;42987;52.916;6.542;2023-03-01T00:01:20;31.97;;;28.97;;
57107;SDS011;42987;52.916;6.542;2023-03-01T00:03:47;36.60;;;33.17;;
57107;SDS011;42987;52.916;6.542;2023-03-01T00:06:14;34.90;;;31.37;;
57107;SDS011;42987;52.916;6.542;2023-03-01T00:08:40;34.20;;;31.00;;
57107;SDS011;42987;52.916;6.542;2023-03-01T00:11:13;33.37;;;30.17;;
57107;SDS011;42987;52.916;6.542;2023-03-01T00:13:40;33.03;;;29.73;;
57107;SDS011;42987;52.916;6.542;2023-03-01T00:16:08;35.67;;;32.37;;
57107;SDS011;42987;52.916;6.542;2023-03-01T00:18:36;36.25;;;32.65;;
57107;SDS011;42987;52.916;6.542;2023-03-01T00:21:02;34.87;;;31.37;;
57107;SDS011;42987;52.916;6.542;2023-03-01T00:23:28;35.50;;;32.03;;
57107;SDS011;42987;52.916;6.542;2023-03-01T00:25:54;38.47;;;34.97;;
57107;SDS011;42987;52.916;6.542;2023-03-01T00:28:20;35.00;;;31.40;;
57107;SDS011;42987;52.916;6.542;2023-03-01T00:30:49;35.70;;;32.23;;
57107;SDS011;42987;52.916;6.542;2023-03-01T00:33:15;40.30;;;36.23;;
57107;SDS011;42987;52.916;6.542;2023-03-01T00:35:41;42.73;;;38.40;;
57107;SDS011;42987;52.916;6.542;2023-03-01T00:38:07;39.03;;;35.07;;
57107;SDS011;42987;52.916;6.542;2023-03-01T00:40:33;47.03;;;41.93;;
57107;SDS011;42987;52.916;6.542;2023-03-01T00:43:00;54.10;;;44.10;;
57107;SDS011;42987;52.916;6.542;2023-03-01T00:45:26;65.57;;;49.60;;
57107;SDS011;42987;52.916;6.542;2023-03-01T00:47:53;194.70;;;53.67;;
57107;SDS011;42987;52.916;6.542;2023-03-01T00:50:19;228.60;;;54.33;;
57107;SDS011;42987;52.916;6.542;2023-03-01T00:52:46;110.27;;;54.60;;
57107;SDS011;42987;52.916;6.542;2023-03-01T00:55:11;266.47;;;64.63;;
57107;SDS011;42987;52.916;6.542;2023-03-01T00:57:38;325.07;;;71.00;;
57107;SDS011;42987;52.916;6.542;2023-03-01T01:00:04;267.00;;;64.63;;
57107;SDS011;42987;52.916;6.542;2023-03-01T01:02:32;248.37;;;66.53;;
57107;SDS011;42987;52.916;6.542;2023-03-01T01:04:59;264.77;;;69.07;;
57107;SDS011;42987;52.916;6.542;2023-03-01T01:07:25;359.07;;;80.07;;
57107;SDS011;42987;52.916;6.542;2023-03-01T01:09:50;230.33;;;65.17;;
57107;SDS011;42987;52.916;6.542;2023-03-01T01:12:16;258.93;;;68.87;;
57107;SDS011;42987;52.916;6.542;2023-03-01T01:14:42;281.10;;;65.73;;
57107;SDS011;42987;52.916;6.542;2023-03-01T01:17:08;355.87;;;73.63;;
57107;SDS011;42987;52.916;6.542;2023-03-01T01:19:39;426.43;;;85.77;;
57107;SDS011;42987;52.916;6.542;2023-03-01T01:22:06;306.97;;;70.10;;
57107;SDS011;42987;52.916;6.542;2023-03-01T01:24:32;472.43;;;87.37;;
57107;SDS011;42987;52.916;6.542;2023-03-01T01:26:57;341.63;;;66.40;;
57107;SDS011;42987;52.916;6.542;2023-03-01T01:29:23;389.30;;;84.00;;
57107;SDS011;42987;52.916;6.542;2023-03-01T01:31:49;332.07;;;79.33;;
57107;SDS011;42987;52.916;6.542;2023-03-01T01:34:17;371.47;;;79.60;;
57107;SDS011;42987;52.916;6.542;2023-03-01T01:36:47;320.53;;;76.00;;
57107;SDS011;42987;52.916;6.542;2023-03-01T01:39:15;321.23;;;81.85;;
57107;SDS011;42987;52.916;6.542;2023-03-01T01:41:44;217.27;;;60.20;;
57107;SDS011;42987;52.916;6.542;2023-03-01T01:44:17;171.10;;;57.37;;
57107;SDS011;42987;52.916;6.542;2023-03-01T01:46:55;400.90;;;82.17;;
57107;SDS011;42987;52.916;6.542;2023-03-01T01:49:36;310.37;;;68.80;;
57107;SDS011;42987;52.916;6.542;2023-03-01T01:52:34;182.90;;;56.10;;
57107;SDS011;42987;52.916;6.542;2023-03-01T01:55:11;202.50;;;58.77;;
57107;SDS011;42987;52.916;6.542;2023-03-01T01:57:43;230.47;;;58.57;;
57107;SDS011;42987;52.916;6.542;2023-03-01T02:00:15;144.20;;;51.50;;
57107;SDS011;42987;52.916;6.542;2023-03-01T02:02:46;238.90;;;65.70;;
57107;SDS011;42987;52.916;6.542;2023-03-01T02:05:33;156.43;;;56.53;;
57107;SDS011;42987;52.916;6.542;2023-03-01T02:08:20;203.40;;;58.30;;
57107;SDS011;42987;52.916;6.542;2023-03-01T02:10:50;79.85;;;47.92;;
57107;SDS011;42987;52.916;6.542;2023-03-01T02:13:17;93.90;;;51.50;;
57107;SDS011;42987;52.916;6.542;2023-03-01T02:15:43;97.80;;;52.70;;
57107;SDS011;42987;52.916;6.542;2023-03-01T02:18:13;44.43;;;37.87;;
57107;SDS011;42987;52.916;6.542;2023-03-01T02:23:44;40.63;;;36.83;;
57107;SDS011;42987;52.916;6.542;2023-03-01T02:26:29;49.17;;;40.90;;
57107;SDS011;42987;52.916;6.542;2023-03-01T02:29:03;31.70;;;28.90;;
57107;SDS011;42987;52.916;6.542;2023-03-01T02:31:32;39.80;;;35.67;;
57107;SDS011;42987;52.916;6.542;2023-03-01T02:34:08;33.53;;;30.53;;
57107;SDS011;42987;52.916;6.542;2023-03-01T02:36:44;41.95;;;37.85;;
57107;SDS011;42987;52.916;6.542;2023-03-01T02:39:26;43.87;;;39.53;;
57107;SDS011;42987;52.916;6.542;2023-03-01T02:41:59;39.97;;;36.17;;
57107;SDS011;42987;52.916;6.542;2023-03-01T02:44:26;37.73;;;34.23;;
57107;SDS011;42987;52.916;6.542;2023-03-01T02:46:53;39.37;;;35.63;;
57107;SDS011;42987;52.916;6.542;2023-03-01T02:49:27;32.83;;;29.80;;
57107;SDS011;42987;52.916;6.542;2023-03-01T02:57:04;34.43;;;31.30;;
57107;SDS011;42987;52.916;6.542;2023-03-01T02:59:31;32.17;;;29.37;;
57107;SDS011;42987;52.916;6.542;2023-03-01T03:02:04;35.30;;;32.07;;
57107;SDS011;42987;52.916;6.542;2023-03-01T03:04:45;46.77;;;42.07;;
57107;SDS011;42987;52.916;6.542;2023-03-01T03:07:11;41.17;;;37.20;;
57107;SDS011;42987;52.916;6.542;2023-03-01T03:09:37;36.37;;;33.07;;
57107;SDS011;42987;52.916;6.542;2023-03-01T03:12:03;35.77;;;32.47;;
57107;SDS011;42987;52.916;6.542;2023-03-01T03:14:29;34.80;;;31.60;;
57107;SDS011;42987;52.916;6.542;2023-03-01T03:16:59;36.90;;;33.47;;
57107;SDS011;42987;52.916;6.542;2023-03-01T03:19:25;38.63;;;35.03;;
57107;SDS011;42987;52.916;6.542;2023-03-01T03:21:51;38.20;;;34.70;;
57107;SDS011;42987;52.916;6.542;2023-03-01T03:24:17;39.53;;;35.90;;
57107;SDS011;42987;52.916;6.542;2023-03-01T03:26:43;33.77;;;30.67;;
57107;SDS011;42987;52.916;6.542;2023-03-01T03:29:09;33.90;;;30.90;;
57107;SDS011;42987;52.916;6.542;2023-03-01T03:31:34;36.20;;;32.70;;
57107;SDS011;42987;52.916;6.542;2023-03-01T03:34:00;30.13;;;27.43;;
57107;SDS011;42987;52.916;6.542;2023-03-01T03:36:26;28.53;;;26.03;;
57107;SDS011;42987;52.916;6.542;2023-03-01T03:38:52;29.93;;;27.23;;
57107;SDS011;42987;52.916;6.542;2023-03-01T03:41:18;28.80;;;26.30;;
57107;SDS011;42987;52.916;6.542;2023-03-01T03:43:44;26.37;;;24.07;;
57107;SDS011;42987;52.916;6.542;2023-03-01T03:46:11;29.70;;;27.00;;
57107;SDS011;42987;52.916;6.542;2023-03-01T03:48:41;32.07;;;29.20;;
57107;SDS011;42987;52.916;6.542;2023-03-01T03:51:09;31.63;;;28.63;;
57107;SDS011;42987;52.916;6.542;2023-03-01T03:53:37;32.40;;;29.40;;
57107;SDS011;42987;52.916;6.542;2023-03-01T03:56:02;32.97;;;30.00;;
57107;SDS011;42987;52.916;6.542;2023-03-01T03:58:28;33.17;;;30.07;;
57107;SDS011;42987;52.916;6.542;2023-03-01T04:00:56;33.73;;;30.63;;
57107;SDS011;42987;52.916;6.542;2023-03-01T04:03:24;33.53;;;30.43;;
57107;SDS011;42987;52.916;6.542;2023-03-01T04:05:51;33.13;;;30.23;;
57107;SDS011;42987;52.916;6.542;2023-03-01T04:08:18;31.73;;;29.00;;
57107;SDS011;42987;52.916;6.542;2023-03-01T04:10:46;30.57;;;27.77;;
57107;SDS011;42987;52.916;6.542;2023-03-01T04:13:15;30.00;;;27.37;;
57107;SDS011;42987;52.916;6.542;2023-03-01T04:18:14;29.45;;;26.75;;
57107;SDS011;42987;52.916;6.542;2023-03-01T04:20:42;30.60;;;27.83;;
57107;SDS011;42987;52.916;6.542;2023-03-01T04:25:56;28.77;;;26.17;;
57107;SDS011;42987;52.916;6.542;2023-03-01T04:28:27;29.77;;;27.03;;
57107;SDS011;42987;52.916;6.542;2023-03-01T04:31:09;32.00;;;29.10;;
57107;SDS011;42987;52.916;6.542;2023-03-01T04:36:11;29.67;;;27.05;;
57107;SDS011;42987;52.916;6.542;2023-03-01T04:38:39;31.77;;;28.87;;
57107;SDS011;42987;52.916;6.542;2023-03-01T04:41:06;27.90;;;25.50;;
57107;SDS011;42987;52.916;6.542;2023-03-01T04:43:34;28.77;;;26.27;;
57107;SDS011;42987;52.916;6.542;2023-03-01T04:46:01;33.67;;;30.70;;
57107;SDS011;42987;52.916;6.542;2023-03-01T04:48:28;29.67;;;27.03;;
57107;SDS011;42987;52.916;6.542;2023-03-01T04:50:59;34.97;;;31.77;;
57107;SDS011;42987;52.916;6.542;2023-03-01T04:53:25;31.67;;;28.77;;
57107;SDS011;42987;52.916;6.542;2023-03-01T04:55:55;31.10;;;28.33;;
57107;SDS011;42987;52.916;6.542;2023-03-01T04:58:22;30.70;;;28.00;;
57107;SDS011;42987;52.916;6.542;2023-03-01T05:00:49;30.33;;;27.53;;
57107;SDS011;42987;52.916;6.542;2023-03-01T05:03:14;30.60;;;27.90;;
57107;SDS011;42987;52.916;6.542;2023-03-01T05:05:43;29.63;;;27.03;;
57107;SDS011;42987;52.916;6.542;2023-03-01T05:08:10;27.90;;;25.50;;
57107;SDS011;42987;52.916;6.542;2023-03-01T05:10:46;28.43;;;25.93;;
57107;SDS011;42987;52.916;6.542;2023-03-01T05:13:15;26.77;;;24.47;;
57107;SDS011;42987;52.916;6.542;2023-03-01T05:15:53;27.37;;;24.97;;
57107;SDS011;42987;52.916;6.542;2023-03-01T05:18:27;29.67;;;26.98;;
57107;SDS011;42987;52.916;6.542;2023-03-01T05:21:06;26.00;;;23.70;;
57107;SDS011;42987;52.916;6.542;2023-03-01T05:23:37;24.50;;;22.30;;
57107;SDS011;42987;52.916;6.542;2023-03-01T05:26:03;26.13;;;23.83;;
57107;SDS011;42987;52.916;6.542;2023-03-01T05:28:30;28.17;;;25.73;;
57107;SDS011;42987;52.916;6.542;2023-03-01T05:30:57;27.50;;;25.10;;
57107;SDS011;42987;52.916;6.542;2023-03-01T05:33:23;28.87;;;26.27;;
57107;SDS011;42987;52.916;6.542;2023-03-01T05:35:52;26.48;;;24.10;;
57107;SDS011;42987;52.916;6.542;2023-03-01T05:38:19;25.53;;;23.33;;
57107;SDS011;42987;52.916;6.542;2023-03-01T05:40:46;27.30;;;24.80;;
57107;SDS011;42987;52.916;6.542;2023-03-01T05:43:14;28.50;;;25.90;;
57107;SDS011;42987;52.916;6.542;2023-03-01T05:45:41;27.40;;;24.97;;
57107;SDS011;42987;52.916;6.542;2023-03-01T05:48:08;25.27;;;22.97;;
57107;SDS011;42987;52.916;6.542;2023-03-01T05:50:37;26.53;;;24.13;;
57107;SDS011;42987;52.916;6.542;2023-03-01T05:53:08;27.40;;;24.97;;
57107;SDS011;42987;52.916;6.542;2023-03-01T05:55:40;27.40;;;24.97;;
57107;SDS011;42987;52.916;6.542;2023-03-01T05:58:07;26.33;;;23.93;;
57107;SDS011;42987;52.916;6.542;2023-03-01T06:00:36;25.47;;;23.17;;
57107;SDS011;42987;52.916;6.542;2023-03-01T06:03:02;25.87;;;23.57;;
57107;SDS011;42987;52.916;6.542;2023-03-01T06:05:29;25.60;;;23.30;;
57107;SDS011;42987;52.916;6.542;2023-03-01T06:07:56;25.20;;;22.93;;
57107;SDS011;42987;52.916;6.542;2023-03-01T06:10:25;24.10;;;21.97;;
57107;SDS011;42987;52.916;6.542;2023-03-01T06:12:51;24.40;;;22.30;;
57107;SDS011;42987;52.916;6.542;2023-03-01T06:15:17;24.40;;;22.17;;
57107;SDS011;42987;52.916;6.542;2023-03-01T06:17:45;25.40;;;23.07;;
57107;SDS011;42987;52.916;6.542;2023-03-01T06:20:13;26.00;;;23.50;;
57107;SDS011;42987;52.916;6.542;2023-03-01T06:22:43;24.27;;;22.07;;
57107;SDS011;42987;52.916;6.542;2023-03-01T06:25:10;25.77;;;23.47;;
57107;SDS011;42987;52.916;6.542;2023-03-01T06:27:38;24.60;;;22.33;;
57107;SDS011;42987;52.916;6.542;2023-03-01T06:30:04;26.10;;;23.57;;
57107;SDS011;42987;52.916;6.542;2023-03-01T06:32:30;26.17;;;23.63;;
57107;SDS011;42987;52.916;6.542;2023-03-01T06:34:56;27.27;;;24.77;;
57107;SDS011;42987;52.916;6.542;2023-03-01T06:37:24;30.87;;;28.07;;
57107;SDS011;42987;52.916;6.542;2023-03-01T06:39:50;29.77;;;26.77;;
57107;SDS011;42987;52.916;6.542;2023-03-01T06:42:16;31.93;;;28.83;;
57107;SDS011;42987;52.916;6.542;2023-03-01T06:44:45;33.67;;;30.20;;
57107;SDS011;42987;52.916;6.542;2023-03-01T06:47:11;34.20;;;30.97;;
57107;SDS011;42987;52.916;6.542;2023-03-01T06:49:37;32.70;;;29.50;;
57107;SDS011;42987;52.916;6.542;2023-03-01T06:52:03;32.50;;;29.40;;
57107;SDS011;42987;52.916;6.542;2023-03-01T06:54:29;35.47;;;31.97;;
57107;SDS011;42987;52.916;6.542;2023-03-01T06:56:54;35.83;;;32.30;;
57107;SDS011;42987;52.916;6.542;2023-03-01T06:59:20;35.80;;;32.30;;
57107;SDS011;42987;52.916;6.542;2023-03-01T07:01:46;37.23;;;33.63;;
57107;SDS011;42987;52.916;6.542;2023-03-01T07:04:12;37.60;;;33.90;;
57107;SDS011;42987;52.916;6.542;2023-03-01T07:06:38;38.73;;;34.73;;
57107;SDS011;42987;52.916;6.542;2023-03-01T07:09:04;37.50;;;33.77;;
57107;SDS011;42987;52.916;6.542;2023-03-01T07:11:30;40.20;;;36.00;;
57107;SDS011;42987;52.916;6.542;2023-03-01T07:13:56;38.80;;;34.77;;
57107;SDS011;42987;52.916;6.542;2023-03-01T07:16:23;40.20;;;36.10;;
57107;SDS011;42987;52.916;6.542;2023-03-01T07:18:49;38.00;;;34.13;;
57107;SDS011;42987;52.916;6.542;2023-03-01T07:21:14;36.47;;;32.97;;
57107;SDS011;42987;52.916;6.542;2023-03-01T07:23:41;35.70;;;32.30;;
57107;SDS011;42987;52.916;6.542;2023-03-01T07:26:08;34.50;;;31.10;;
57107;SDS011;42987;52.916;6.542;2023-03-01T07:28:33;32.70;;;29.60;;
57107;SDS011;42987;52.916;6.542;2023-03-01T07:31:01;38.57;;;34.57;;
57107;SDS011;42987;52.916;6.542;2023-03-01T07:33:27;38.87;;;34.90;;
57107;SDS011;42987;52.916;6.542;2023-03-01T07:36:01;43.10;;;38.57;;
57107;SDS011;42987;52.916;6.542;2023-03-01T07:38:28;36.87;;;33.13;;
57107;SDS011;42987;52.916;6.542;2023-03-01T07:40:57;38.13;;;34.30;;
57107;SDS011;42987;52.916;6.542;2023-03-01T07:43:27;37.40;;;33.67;;
57107;SDS011;42987;52.916;6.542;2023-03-01T07:45:54;40.67;;;36.60;;
57107;SDS011;42987;52.916;6.542;2023-03-01T07:48:23;40.43;;;36.33;;
57107;SDS011;42987;52.916;6.542;2023-03-01T07:50:51;42.40;;;38.13;;
57107;SDS011;42987;52.916;6.542;2023-03-01T07:53:17;44.97;;;40.23;;
57107;SDS011;42987;52.916;6.542;2023-03-01T07:55:43;43.60;;;39.13;;
57107;SDS011;42987;52.916;6.542;2023-03-01T07:58:09;43.00;;;38.60;;
57107;SDS011;42987;52.916;6.542;2023-03-01T08:00:35;52.00;;;46.40;;
57107;SDS011;42987;52.916;6.542;2023-03-01T08:03:00;44.50;;;40.10;;
57107;SDS011;42987;52.916;6.542;2023-03-01T08:05:27;43.73;;;39.13;;
57107;SDS011;42987;52.916;6.542;2023-03-01T08:07:56;55.17;;;46.77;;
57107;SDS011;42987;52.916;6.542;2023-03-01T08:10:22;55.87;;;49.27;;
57107;SDS011;42987;52.916;6.542;2023-03-01T08:12:50;51.50;;;46.03;;
57107;SDS011;42987;52.916;6.542;2023-03-01T08:15:16;59.80;;;53.30;;
57107;SDS011;42987;52.916;6.542;2023-03-01T08:17:48;52.70;;;47.28;;
57107;SDS011;42987;52.916;6.542;2023-03-01T08:20:15;52.80;;;47.33;;
57107;SDS011;42987;52.916;6.542;2023-03-01T08:22:41;55.20;;;49.33;;
57107;SDS011;42987;52.916;6.542;2023-03-01T08:25:07;56.03;;;50.13;;
57107;SDS011;42987;52.916;6.542;2023-03-01T08:27:33;45.27;;;40.63;;
57107;SDS011;42987;52.916;6.542;2023-03-01T08:29:59;51.47;;;45.87;;
57107;SDS011;42987;52.916;6.542;2023-03-01T08:32:25;45.23;;;40.63;;
57107;SDS011;42987;52.916;6.542;2023-03-01T08:34:51;42.83;;;38.53;;
57107;SDS011;42987;52.916;6.542;2023-03-01T08:37:16;46.03;;;41.20;;
57107;SDS011;42987;52.916;6.542;2023-03-01T08:39:42;47.43;;;42.43;;
57107;SDS011;42987;52.916;6.542;2023-03-01T08:42:08;47.07;;;42.10;;
57107;SDS011;42987;52.916;6.542;2023-03-01T08:44:34;40.93;;;36.73;;
57107;SDS011;42987;52.916;6.542;2023-03-01T08:47:00;39.80;;;35.80;;
57107;SDS011;42987;52.916;6.542;2023-03-01T08:49:27;41.03;;;36.40;;
57107;SDS011;42987;52.916;6.542;2023-03-01T08:51:53;43.13;;;38.60;;
57107;SDS011;42987;52.916;6.542;2023-03-01T08:54:21;48.70;;;43.60;;
57107;SDS011;42987;52.916;6.542;2023-03-01T08:56:47;48.50;;;43.23;;
57107;SDS011;42987;52.916;6.542;2023-03-01T08:59:14;45.88;;;40.88;;
57107;SDS011;42987;52.916;6.542;2023-03-01T09:01:43;41.83;;;37.30;;
57107;SDS011;42987;52.916;6.542;2023-03-01T09:04:09;43.93;;;39.23;;
57107;SDS011;42987;52.916;6.542;2023-03-01T09:06:36;43.35;;;38.80;;
57107;SDS011;42987;52.916;6.542;2023-03-01T09:09:03;42.22;;;37.83;;
57107;SDS011;42987;52.916;6.542;2023-03-01T09:11:30;42.13;;;37.60;;
57107;SDS011;42987;52.916;6.542;2023-03-01T09:13:56;40.33;;;35.97;;
57107;SDS011;42987;52.916;6.542;2023-03-01T09:16:22;43.40;;;38.80;;
57107;SDS011;42987;52.916;6.542;2023-03-01T09:18:49;42.15;;;37.75;;
57107;SDS011;42987;52.916;6.542;2023-03-01T09:21:19;42.85;;;38.03;;
57107;SDS011;42987;52.916;6.542;2023-03-01T09:23:47;41.50;;;37.25;;
57107;SDS011;42987;52.916;6.542;2023-03-01T09:26:18;40.80;;;36.63;;
57107;SDS011;42987;52.916;6.542;2023-03-01T09:28:47;41.25;;;36.92;;
57107;SDS011;42987;52.916;6.542;2023-03-01T09:31:17;41.95;;;37.38;;
57107;SDS011;42987;52.916;6.542;2023-03-01T09:33:48;42.08;;;37.45;;
57107;SDS011;42987;52.916;6.542;2023-03-01T09:36:17;39.45;;;35.30;;
57107;SDS011;42987;52.916;6.542;2023-03-01T09:38:45;41.70;;;37.55;;
57107;SDS011;42987;52.916;6.542;2023-03-01T09:41:20;37.65;;;33.83;;
57107;SDS011;42987;52.916;6.542;2023-03-01T09:44:14;45.00;;;40.30;;
57107;SDS011;42987;52.916;6.542;2023-03-01T09:46:51;40.80;;;36.50;;
57107;SDS011;42987;52.916;6.542;2023-03-01T09:49:24;37.50;;;33.53;;
57107;SDS011;42987;52.916;6.542;2023-03-01T09:54:41;33.90;;;30.10;;
57107;SDS011;42987;52.916;6.542;2023-03-01T09:57:28;30.80;;;27.42;;
57107;SDS011;42987;52.916;6.542;2023-03-01T10:02:52;29.17;;;26.17;;
57107;SDS011;42987;52.916;6.542;2023-03-01T10:10:56;23.27;;;20.77;;
57107;SDS011;42987;52.916;6.542;2023-03-01T10:13:24;22.90;;;19.08;;
57107;SDS011;42987;52.916;6.542;2023-03-01T10:16:15;23.02;;;20.17;;
57107;SDS011;42987;52.916;6.542;2023-03-01T10:18:53;22.73;;;20.27;;
57107;SDS011;42987;52.916;6.542;2023-03-01T10:21:25;21.42;;;17.02;;
57107;SDS011;42987;52.916;6.542;2023-03-01T10:23:53;20.10;;;18.00;;
57107;SDS011;42987;52.916;6.542;2023-03-01T10:29:12;17.70;;;14.68;;
57107;SDS011;42987;52.916;6.542;2023-03-01T10:31:40;18.00;;;15.65;;
57107;SDS011;42987;52.916;6.542;2023-03-01T10:34:19;16.48;;;14.60;;
57107;SDS011;42987;52.916;6.542;2023-03-01T10:36:48;14.13;;;12.63;;
57107;SDS011;42987;52.916;6.542;2023-03-01T10:39:20;16.92;;;14.93;;
57107;SDS011;42987;52.916;6.542;2023-03-01T10:47:12;19.20;;;16.88;;
57107;SDS011;42987;52.916;6.542;2023-03-01T10:49:53;21.35;;;18.92;;
57107;SDS011;42987;52.916;6.542;2023-03-01T10:52:37;21.77;;;18.75;;
57107;SDS011;42987;52.916;6.542;2023-03-01T10:57:35;19.52;;;17.00;;
57107;SDS011;42987;52.916;6.542;2023-03-01T11:00:26;18.30;;;16.33;;
57107;SDS011;42987;52.916;6.542;2023-03-01T11:02:51;16.67;;;14.50;;
57107;SDS011;42987;52.916;6.542;2023-03-01T11:05:31;17.05;;;15.25;;
57107;SDS011;42987;52.916;6.542;2023-03-01T11:07:59;18.35;;;16.38;;
57107;SDS011;42987;52.916;6.542;2023-03-01T11:10:29;21.37;;;18.57;;
57107;SDS011;42987;52.916;6.542;2023-03-01T11:15:40;21.60;;;19.40;;
57107;SDS011;42987;52.916;6.542;2023-03-01T11:18:29;22.85;;;20.35;;
57107;SDS011;42987;52.916;6.542;2023-03-01T11:20:54;20.10;;;17.88;;
57107;SDS011;42987;52.916;6.542;2023-03-01T11:23:21;20.55;;;18.35;;
57107;SDS011;42987;52.916;6.542;2023-03-01T11:25:54;17.73;;;15.18;;
57107;SDS011;42987;52.916;6.542;2023-03-01T11:28:23;18.48;;;16.27;;
57107;SDS011;42987;52.916;6.542;2023-03-01T11:30:55;20.77;;;18.40;;
57107;SDS011;42987;52.916;6.542;2023-03-01T11:38:54;20.90;;;18.70;;
57107;SDS011;42987;52.916;6.542;2023-03-01T11:41:23;19.70;;;17.70;;
57107;SDS011;42987;52.916;6.542;2023-03-01T12:14:52;19.13;;;17.20;;
57107;SDS011;42987;52.916;6.542;2023-03-01T12:17:48;21.13;;;18.92;;
57107;SDS011;42987;52.916;6.542;2023-03-01T12:24:07;17.85;;;15.90;;
57107;SDS011;42987;52.916;6.542;2023-03-01T12:46:19;19.55;;;17.65;;
57107;SDS011;42987;52.916;6.542;2023-03-01T12:51:28;20.30;;;18.10;;
57107;SDS011;42987;52.916;6.542;2023-03-01T12:53:58;19.35;;;17.40;;
57107;SDS011;42987;52.916;6.542;2023-03-01T12:56:30;19.25;;;17.25;;
57107;SDS011;42987;52.916;6.542;2023-03-01T12:59:02;19.65;;;17.73;;
57107;SDS011;42987;52.916;6.542;2023-03-01T13:01:54;21.13;;;19.02;;
57107;SDS011;42987;52.916;6.542;2023-03-01T13:04:31;22.30;;;20.10;;
57107;SDS011;42987;52.916;6.542;2023-03-01T13:07:28;22.30;;;20.10;;
57107;SDS011;42987;52.916;6.542;2023-03-01T13:17:53;22.40;;;20.20;;
57107;SDS011;42987;52.916;6.542;2023-03-01T13:20:48;23.00;;;20.65;;
57107;SDS011;42987;52.916;6.542;2023-03-01T13:31:10;23.02;;;20.63;;
57107;SDS011;42987;52.916;6.542;2023-03-01T13:34:00;22.27;;;19.98;;
57107;SDS011;42987;52.916;6.542;2023-03-01T13:42:25;22.33;;;20.08;;
57107;SDS011;42987;52.916;6.542;2023-03-01T13:44:55;23.90;;;21.40;;
57107;SDS011;42987;52.916;6.542;2023-03-01T13:47:22;23.73;;;21.23;;
57107;SDS011;42987;52.916;6.542;2023-03-01T13:49:53;22.33;;;20.10;;
57107;SDS011;42987;52.916;6.542;2023-03-01T13:52:37;22.35;;;20.15;;
57107;SDS011;42987;52.916;6.542;2023-03-01T13:57:42;24.55;;;22.05;;
57107;SDS011;42987;52.916;6.542;2023-03-01T14:03:17;22.77;;;20.48;;
57107;SDS011;42987;52.916;6.542;2023-03-01T14:05:57;21.45;;;19.27;;
57107;SDS011;42987;52.916;6.542;2023-03-01T14:08:27;22.15;;;19.73;;
57107;SDS011;42987;52.916;6.542;2023-03-01T14:19:04;17.10;;;15.32;;
57107;SDS011;42987;52.916;6.542;2023-03-01T14:21:42;16.25;;;14.55;;
57107;SDS011;42987;52.916;6.542;2023-03-01T14:24:18;16.50;;;14.82;;
57107;SDS011;42987;52.916;6.542;2023-03-01T14:26:47;16.98;;;14.02;;
57107;SDS011;42987;52.916;6.542;2023-03-01T14:32:34;15.85;;;14.13;;
57107;SDS011;42987;52.916;6.542;2023-03-01T14:34:54;15.52;;;13.77;;
57107;SDS011;42987;52.916;6.542;2023-03-01T14:39:58;15.50;;;13.85;;
57107;SDS011;42987;52.916;6.542;2023-03-01T14:42:26;14.55;;;12.82;;
57107;SDS011;42987;52.916;6.542;2023-03-01T14:47:26;15.35;;;13.07;;
57107;SDS011;42987;52.916;6.542;2023-03-01T14:53:05;14.40;;;12.90;;
57107;SDS011;42987;52.916;6.542;2023-03-01T14:55:37;14.60;;;13.20;;
57107;SDS011;42987;52.916;6.542;2023-03-01T14:58:09;15.50;;;14.00;;
57107;SDS011;42987;52.916;6.542;2023-03-01T15:01:00;15.30;;;13.73;;
57107;SDS011;42987;52.916;6.542;2023-03-01T15:06:02;15.85;;;14.25;;
57107;SDS011;42987;52.916;6.542;2023-03-01T15:08:30;16.55;;;14.85;;
57107;SDS011;42987;52.916;6.542;2023-03-01T15:13:32;16.48;;;14.43;;
57107;SDS011;42987;52.916;6.542;2023-03-01T15:16:12;16.55;;;14.82;;
57107;SDS011;42987;52.916;6.542;2023-03-01T15:19:00;15.68;;;14.07;;
57107;SDS011;42987;52.916;6.542;2023-03-01T15:21:31;15.65;;;14.05;;
57107;SDS011;42987;52.916;6.542;2023-03-01T15:26:45;15.57;;;14.07;;
57107;SDS011;42987;52.916;6.542;2023-03-01T15:29:32;14.82;;;13.32;;
57107;SDS011;42987;52.916;6.542;2023-03-01T15:32:38;17.00;;;15.20;;
57107;SDS011;42987;52.916;6.542;2023-03-01T15:34:59;18.30;;;16.50;;
57107;SDS011;42987;52.916;6.542;2023-03-01T15:37:46;18.30;;;16.33;;
57107;SDS011;42987;52.916;6.542;2023-03-01T15:43:06;18.15;;;16.35;;
57107;SDS011;42987;52.916;6.542;2023-03-01T15:45:58;17.67;;;15.90;;
57107;SDS011;42987;52.916;6.542;2023-03-01T15:48:24;17.55;;;15.85;;
57107;SDS011;42987;52.916;6.542;2023-03-01T15:50:55;19.33;;;17.42;;
57107;SDS011;42987;52.916;6.542;2023-03-01T15:53:23;17.98;;;16.17;;
57107;SDS011;42987;52.916;6.542;2023-03-01T15:55:49;17.77;;;15.98;;
57107;SDS011;42987;52.916;6.542;2023-03-01T15:58:17;18.70;;;16.90;;
57107;SDS011;42987;52.916;6.542;2023-03-01T16:00:45;19.05;;;17.05;;
57107;SDS011;42987;52.916;6.542;2023-03-01T16:03:13;19.30;;;17.30;;
57107;SDS011;42987;52.916;6.542;2023-03-01T16:05:41;19.80;;;17.80;;
57107;SDS011;42987;52.916;6.542;2023-03-01T16:08:08;19.35;;;17.48;;
57107;SDS011;42987;52.916;6.542;2023-03-01T16:10:34;19.80;;;17.80;;
57107;SDS011;42987;52.916;6.542;2023-03-01T16:13:06;19.27;;;17.38;;
57107;SDS011;42987;52.916;6.542;2023-03-01T16:15:33;19.35;;;17.35;;
57107;SDS011;42987;52.916;6.542;2023-03-01T16:18:03;21.17;;;19.08;;
57107;SDS011;42987;52.916;6.542;2023-03-01T16:20:30;20.23;;;18.17;;
57107;SDS011;42987;52.916;6.542;2023-03-01T16:23:04;21.25;;;19.15;;
57107;SDS011;42987;52.916;6.542;2023-03-01T16:25:31;21.05;;;18.95;;
57107;SDS011;42987;52.916;6.542;2023-03-01T16:27:58;21.65;;;19.45;;
57107;SDS011;42987;52.916;6.542;2023-03-01T16:30:26;20.63;;;18.63;;
57107;SDS011;42987;52.916;6.542;2023-03-01T16:32:52;21.58;;;19.30;;
57107;SDS011;42987;52.916;6.542;2023-03-01T16:35:19;20.38;;;18.35;;
57107;SDS011;42987;52.916;6.542;2023-03-01T16:37:47;21.45;;;19.23;;
57107;SDS011;42987;52.916;6.542;2023-03-01T16:42:43;21.95;;;19.70;;
57107;SDS011;42987;52.916;6.542;2023-03-01T16:45:09;21.90;;;19.73;;
57107;SDS011;42987;52.916;6.542;2023-03-01T16:47:35;21.98;;;19.70;;
57107;SDS011;42987;52.916;6.542;2023-03-01T16:50:01;31.17;;;25.25;;
57107;SDS011;42987;52.916;6.542;2023-03-01T16:52:27;22.27;;;20.00;;
57107;SDS011;42987;52.916;6.542;2023-03-01T16:54:53;23.00;;;20.58;;
57107;SDS011;42987;52.916;6.542;2023-03-01T16:57:18;21.45;;;19.35;;
57107;SDS011;42987;52.916;6.542;2023-03-01T16:59:44;22.40;;;20.10;;
57107;SDS011;42987;52.916;6.542;2023-03-01T17:02:12;21.92;;;19.73;;
57107;SDS011;42987;52.916;6.542;2023-03-01T17:04:42;23.27;;;20.95;;
57107;SDS011;42987;52.916;6.542;2023-03-01T17:07:08;22.83;;;20.52;;
57107;SDS011;42987;52.916;6.542;2023-03-01T17:09:35;23.00;;;20.45;;
57107;SDS011;42987;52.916;6.542;2023-03-01T17:12:02;22.48;;;20.17;;
57107;SDS011;42987;52.916;6.542;2023-03-01T17:14:28;23.88;;;21.42;;
57107;SDS011;42987;52.916;6.542;2023-03-01T17:16:54;25.20;;;22.70;;
57107;SDS011;42987;52.916;6.542;2023-03-01T17:19:20;25.80;;;23.30;;